KMFD/MFD METAR and TAF weather

Enter ICAO airport designator
Station Type Date Time Source
KMFD METAR 2020/01/20 09:52 UTC NOAA

KMFD 200952Z AUTO 26007KT 8SM CLR M12/M13 A3036 RMK AO2 SLP307 T11171128


Station Type Date Time Source
KMFD Decoded METAR 2020/01/20 09:52 UTC NOAA

LAHM MUNICIPAL AIRPORT, OH, United States (KMFD) 40-49N 082-31W 395M
Jan 20, 2020 - 04:52 AM EST / 2020.01.20 0952 UTC
Wind: from the W (260 degrees) at 8 MPH (7 KT):0
Visibility: 8 mile(s):0
Sky conditions: clear
Temperature: 10.9 F (-11.7 C)
Windchill: 0 F (-18 C):1
Dew Point: 9.0 F (-12.8 C)
Relative Humidity: 91%
Pressure (altimeter): 30.36 in. Hg (1028 hPa)
ob: KMFD 200952Z AUTO 26007KT 8SM CLR M12/M13 A3036 RMK AO2 SLP307 T11171128
cycle: 10

Station Type Date Time Source
KMFD TAF 2020/01/20 10:42 UTC NOAA

TAF
AMD KMFD 200938Z 2010/2106 29008KT P6SM SCT025
TEMPO 2010/2014 5SM -SHSN BKN025
FM201400 32006KT P6SM BKN025
FM210000 32004KT P6SM BKN050

Example: see airport list